Time;durP1;ratioP1;P1;durP2;ratioP2;P2;SDS_P1;SDS_P2;PMS_P1;PMS_P2;Temp;Humidity;BMP_temperature;BMP_pressure;BME280_temperature;BME280_humidity;BME280_pressure;Samples;Min_cycle;Max_cycle;Signal;HPM_P1;HPM_P2
2023/04/08 00:02:16;;;;;;;9.00;2.55;;;;;;;5.58;42.71;100557.41;5092102;27;20067;-40
2023/04/08 00:04:42;;;;;;;8.65;2.47;;;;;;;5.38;42.77;100529.91;5069052;28;20530;-39
2023/04/08 00:07:08;;;;;;;8.65;2.80;;;;;;;5.54;42.72;100551.41;5089868;28;20525;-39
2023/04/08 00:09:34;;;;;;;9.30;2.67;;;;;;;5.52;43.05;100555.69;5094596;28;20078;-38
2023/04/08 00:12:00;;;;;;;8.23;2.45;;;;;;;5.52;42.97;100564.28;5082771;28;20297;-38
2023/04/08 00:14:26;;;;;;;4.90;2.67;;;;;;;5.48;42.48;100564.28;5080499;28;20105;-40
2023/04/08 00:16:52;;;;;;;13.15;2.83;;;;;;;5.44;42.78;100560.00;5084995;28;20629;-38
2023/04/08 00:19:18;;;;;;;12.93;2.63;;;;;;;5.45;42.77;100561.69;5081465;28;20531;-38
2023/04/08 00:21:44;;;;;;;11.40;3.15;;;;;;;5.38;43.27;100554.81;5088569;28;20120;-37
2023/04/08 00:24:10;;;;;;;5.80;2.97;;;;;;;5.38;43.05;100562.56;5090462;28;20051;-38
2023/04/08 00:26:36;;;;;;;6.35;2.85;;;;;;;5.33;42.78;100559.13;5098167;28;20036;-39
2023/04/08 00:29:02;;;;;;;7.63;2.75;;;;;;;5.28;43.02;100547.94;5071118;28;20712;-37
2023/04/08 00:31:28;;;;;;;7.07;2.58;;;;;;;5.25;43.35;100553.06;5082586;28;20024;-37
2023/04/08 00:33:54;;;;;;;7.60;3.03;;;;;;;5.29;43.05;100557.38;5080106;28;20056;-37
2023/04/08 00:36:21;;;;;;;7.57;2.63;;;;;;;5.26;43.23;100555.66;5084980;28;20040;-38
2023/04/08 00:38:47;;;;;;;6.65;2.42;;;;;;;5.29;43.12;100559.94;5085218;27;20504;-38
2023/04/08 00:41:13;;;;;;;6.65;2.55;;;;;;;5.27;43.22;100551.38;5077097;28;20081;-38
2023/04/08 00:43:39;;;;;;;15.95;2.58;;;;;;;5.23;43.60;100547.09;5041487;28;20060;-39
2023/04/08 00:46:05;;;;;;;8.15;2.22;;;;;;;5.25;43.54;100561.69;5083806;28;20052;-38
2023/04/08 00:48:31;;;;;;;12.40;3.10;;;;;;;5.23;43.60;100552.25;5089938;28;20036;-38
2023/04/08 00:50:57;;;;;;;9.43;2.85;;;;;;;5.24;43.31;100557.38;5088297;28;20050;-37
2023/04/08 00:53:23;;;;;;;6.72;2.60;;;;;;;5.05;43.90;100529.88;5070253;28;20054;-38
2023/04/08 00:55:49;;;;;;;11.38;2.45;;;;;;;5.18;43.65;100556.53;5079035;28;20048;-38
2023/04/08 00:58:16;;;;;;;12.80;3.08;;;;;;;5.12;44.18;100559.94;5072453;28;20047;-38
2023/04/08 01:00:51;;;;;;;7.18;2.33;;;;;;;5.06;44.61;100555.66;5066118;28;20089;-38
2023/04/08 01:03:37;;;;;;;7.32;2.83;;;;;;;5.00;44.33;100563.34;5088278;28;20036;-38
2023/04/08 01:06:31;;;;;;;7.15;2.47;;;;;;;4.96;44.55;100561.63;5082227;28;20125;-38
2023/04/08 01:08:59;;;;;;;11.50;3.35;;;;;;;4.94;44.67;100563.34;5071140;28;20082;-40
2023/04/08 01:11:26;;;;;;;7.45;2.70;;;;;;;4.91;44.76;100560.75;5085548;28;20048;-38
2023/04/08 01:13:54;;;;;;;12.57;2.75;;;;;;;4.87;44.56;100561.59;5079402;28;20134;-38
2023/04/08 01:16:21;;;;;;;9.93;2.85;;;;;;;4.83;44.59;100561.59;5083929;28;20042;-38
2023/04/08 01:18:50;;;;;;;11.70;2.60;;;;;;;4.60;44.88;100525.47;5076111;28;20519;-38
2023/04/08 01:21:17;;;;;;;7.40;2.70;;;;;;;4.76;44.74;100563.31;5071360;28;20104;-38
2023/04/08 01:24:01;;;;;;;5.13;2.25;;;;;;;4.73;44.72;100560.69;5075958;28;20048;-38
2023/04/08 01:26:27;;;;;;;5.32;2.38;;;;;;;4.69;44.95;100562.41;5051445;28;20040;-38
2023/04/08 01:28:57;;;;;;;11.73;2.60;;;;;;;4.66;45.01;100558.94;5075571;28;20060;-38
2023/04/08 01:31:24;;;;;;;8.40;2.90;;;;;;;4.64;45.02;100560.69;5071787;28;20046;-37
2023/04/08 01:33:51;;;;;;;12.00;2.92;;;;;;;4.59;45.20;100559.81;5084035;28;20580;-39
2023/04/08 01:36:17;;;;;;;6.82;2.58;;;;;;;4.57;45.35;100558.91;5087249;28;20131;-38
2023/04/08 01:38:43;;;;;;;10.20;2.63;;;;;;;4.53;45.48;100559.78;5075080;28;20040;-38
2023/04/08 01:41:10;;;;;;;6.68;2.50;;;;;;;4.50;45.43;100570.06;5083647;28;20108;-38
2023/04/08 01:43:38;;;;;;;12.10;3.00;;;;;;;4.47;45.65;100570.91;5077000;28;20135;-37
2023/04/08 01:46:04;;;;;;;8.30;2.95;;;;;;;4.24;45.60;100532.16;5069821;28;20105;-38
2023/04/08 01:48:30;;;;;;;6.82;3.03;;;;;;;4.43;45.67;100568.31;5088242;28;20042;-38
2023/04/08 01:50:57;;;;;;;9.15;2.90;;;;;;;4.41;45.83;100567.44;5056853;28;20040;-37
2023/04/08 01:53:23;;;;;;;10.82;2.63;;;;;;;4.37;45.83;100566.56;5101666;28;20055;-36
2023/04/08 01:55:54;;;;;;;9.75;2.80;;;;;;;4.36;46.06;100563.97;5087106;28;20075;-38
2023/04/08 01:58:20;;;;;;;4.95;2.28;;;;;;;4.33;46.13;100558.81;5051913;28;20062;-37
2023/04/08 02:00:47;;;;;;;6.20;2.63;;;;;;;4.31;46.30;100571.69;5083480;28;20141;-37
2023/04/08 02:03:16;;;;;;;13.88;2.88;;;;;;;4.28;46.46;100568.25;5081000;28;20036;-38
2023/04/08 02:05:45;;;;;;;9.00;2.45;;;;;;;4.24;46.25;100557.91;5097869;27;20155;-38
2023/04/08 02:08:11;;;;;;;6.63;2.10;;;;;;;4.22;46.28;100567.34;5068338;28;20135;-37
2023/04/08 02:10:37;;;;;;;9.13;2.58;;;;;;;4.19;46.67;100559.59;5082325;28;20043;-38
2023/04/08 02:13:04;;;;;;;9.02;2.70;;;;;;;4.21;46.40;100562.19;5068472;28;20047;-39
2023/04/08 02:15:33;;;;;;;6.75;2.88;;;;;;;4.16;46.67;100559.59;5075684;28;20066;-39
2023/04/08 02:18:12;;;;;;;7.75;2.88;;;;;;;4.12;46.50;100560.44;5083680;28;20052;-39
2023/04/08 02:20:44;;;;;;;6.13;2.42;;;;;;;4.09;46.71;100560.41;5061651;28;20108;-38
2023/04/08 02:23:18;;;;;;;7.68;2.42;;;;;;;4.04;46.87;100554.38;5082990;28;20055;-38
2023/04/08 02:25:46;;;;;;;8.10;3.13;;;;;;;4.03;46.84;100562.94;5040268;28;20052;-38
2023/04/08 02:28:13;;;;;;;7.88;2.55;;;;;;;3.87;46.88;100534.56;5082756;28;20048;-37
2023/04/08 02:30:48;;;;;;;11.77;2.83;;;;;;;4.01;47.02;100569.81;5074899;28;20036;-38
2023/04/08 02:33:14;;;;;;;8.23;2.47;;;;;;;3.97;46.64;100568.06;5087985;28;20133;-37
2023/04/08 02:35:40;;;;;;;12.82;2.72;;;;;;;3.94;47.16;100567.16;5082607;28;20530;-37
2023/04/08 02:38:08;;;;;;;11.15;2.72;;;;;;;3.89;46.93;100563.69;5086248;28;20044;-38
2023/04/08 02:40:34;;;;;;;6.07;2.53;;;;;;;3.88;47.09;100567.13;5060408;28;20724;-38
2023/04/08 02:43:02;;;;;;;8.55;3.10;;;;;;;3.88;47.23;100572.25;5082200;28;20139;-38
2023/04/08 02:45:31;;;;;;;7.20;2.90;;;;;;;3.69;47.32;100558.44;5071314;28;20048;-37
2023/04/08 02:47:58;;;;;;;17.45;3.88;;;;;;;3.79;47.29;100580.78;5069162;28;20039;-38
2023/04/08 02:50:24;;;;;;;13.73;3.08;;;;;;;3.79;47.54;100575.66;5080300;28;20047;-37
2023/04/08 02:52:50;;;;;;;7.00;3.65;;;;;;;3.80;47.38;100585.09;5096530;28;20116;-38
2023/04/08 02:55:16;;;;;;;7.60;2.90;;;;;;;3.64;47.62;100555.81;5087472;28;20481;-38
2023/04/08 02:57:42;;;;;;;12.50;2.97;;;;;;;3.79;47.58;100584.22;5085803;28;20176;-37
2023/04/08 03:00:08;;;;;;;5.60;2.90;;;;;;;3.62;47.58;100559.22;5084634;28;20048;-39
2023/04/08 03:02:35;;;;;;;9.98;3.20;;;;;;;3.79;47.53;100583.34;5087465;28;20047;-38
2023/04/08 03:05:00;;;;;;;7.80;2.55;;;;;;;3.79;47.68;100584.22;5071495;28;20589;-39
2023/04/08 03:07:26;;;;;;;9.02;2.72;;;;;;;3.78;47.67;100585.06;5086964;28;20040;-39
2023/04/08 03:09:54;;;;;;;14.68;2.95;;;;;;;3.77;47.58;100583.34;5076217;28;20072;-38
2023/04/08 03:12:21;;;;;;;9.38;3.03;;;;;;;3.77;47.71;100591.06;5067024;28;20028;-38
2023/04/08 03:14:48;;;;;;;6.72;3.03;;;;;;;3.78;48.02;100595.34;5077280;28;20053;-37
2023/04/08 03:17:14;;;;;;;10.25;3.17;;;;;;;3.80;48.07;100587.66;5080307;28;20055;-38
2023/04/08 03:19:40;;;;;;;11.68;3.20;;;;;;;3.84;47.75;100592.84;5057568;28;20036;-38
2023/04/08 03:22:06;;;;;;;9.85;3.50;;;;;;;3.87;47.90;100589.44;5083269;28;20056;-38
2023/04/08 03:24:31;;;;;;;11.68;2.80;;;;;;;3.89;47.89;100589.44;5086684;28;20479;-38
2023/04/08 03:26:57;;;;;;;8.38;4.05;;;;;;;3.94;47.90;100590.31;5084525;28;20036;-36
2023/04/08 03:29:23;;;;;;;11.48;3.17;;;;;;;3.79;47.58;100563.66;5083142;28;20048;-38
2023/04/08 03:31:49;;;;;;;8.88;2.95;;;;;;;3.96;47.75;100588.63;5095978;28;20032;-38
2023/04/08 03:34:15;;;;;;;9.85;3.55;;;;;;;3.95;47.76;100584.31;5072199;28;20047;-38
2023/04/08 03:36:41;;;;;;;9.10;3.45;;;;;;;3.95;47.71;100581.75;5068879;28;20046;-37
2023/04/08 03:39:07;;;;;;;7.13;3.33;;;;;;;3.96;47.56;100584.34;5085543;28;20036;-37
2023/04/08 03:41:33;;;;;;;13.48;3.58;;;;;;;3.99;47.82;100586.06;5076031;28;20699;-38
2023/04/08 03:43:59;;;;;;;8.27;4.45;;;;;;;4.00;47.49;100591.22;5087430;28;20075;-38
2023/04/08 03:46:24;;;;;;;7.40;3.08;;;;;;;4.05;47.57;100598.97;5079570;28;20048;-37
2023/04/08 03:48:51;;;;;;;14.82;4.53;;;;;;;3.91;47.87;100562.88;5067214;28;20059;-39
2023/04/08 03:51:16;;;;;;;9.07;3.22;;;;;;;3.93;47.55;100571.44;5081725;28;20036;-37
2023/04/08 03:53:42;;;;;;;17.35;3.50;;;;;;;4.13;47.90;100592.19;5078436;28;20075;-38
2023/04/08 03:56:08;;;;;;;8.20;3.50;;;;;;;4.17;47.72;100596.50;5075061;28;20135;-38
2023/04/08 03:58:34;;;;;;;8.45;3.67;;;;;;;4.21;48.05;100588.78;5068308;28;20070;-38
2023/04/08 04:01:00;;;;;;;13.27;3.78;;;;;;;4.26;48.04;100593.97;5071633;28;20034;-38
2023/04/08 04:03:26;;;;;;;13.00;3.55;;;;;;;4.29;47.71;100585.41;5083723;28;20122;-38
2023/04/08 04:05:52;;;;;;;9.13;3.10;;;;;;;4.32;48.09;100590.56;5087126;28;20063;-39
2023/04/08 04:08:18;;;;;;;8.30;3.47;;;;;;;4.39;48.05;100597.47;5096794;28;20076;-38
2023/04/08 04:10:44;;;;;;;6.10;2.95;;;;;;;4.44;47.77;100598.34;5080551;28;20546;-39
2023/04/08 04:13:10;;;;;;;8.60;3.10;;;;;;;4.47;47.84;100600.94;5087030;28;20048;-38
2023/04/08 04:15:40;;;;;;;8.80;3.22;;;;;;;4.50;47.63;100598.41;5074688;28;20029;-38
2023/04/08 04:18:07;;;;;;;10.43;3.22;;;;;;;4.56;47.45;100608.69;5062795;28;20040;-37
2023/04/08 04:20:33;;;;;;;9.45;3.28;;;;;;;4.63;47.37;100603.59;5085192;28;20040;-38
2023/04/08 04:22:58;;;;;;;9.13;3.30;;;;;;;4.54;47.83;100576.94;5084133;28;20133;-38
2023/04/08 04:25:24;;;;;;;6.82;3.20;;;;;;;4.69;47.88;100598.47;5086717;28;20425;-39
2023/04/08 04:27:50;;;;;;;7.45;3.15;;;;;;;4.78;47.62;100600.22;5089179;28;20059;-38
2023/04/08 04:30:18;;;;;;;10.50;3.35;;;;;;;4.83;46.72;100601.09;5078105;28;20056;-38
2023/04/08 04:32:44;;;;;;;9.93;3.38;;;;;;;4.78;47.16;100582.19;5070514;28;20043;-39
2023/04/08 04:35:11;;;;;;;12.38;3.25;;;;;;;4.83;46.95;100580.47;5077148;28;20040;-39
2023/04/08 04:37:37;;;;;;;6.68;2.95;;;;;;;4.88;46.98;100578.78;5087595;28;20533;-38
2023/04/08 04:40:04;;;;;;;9.93;3.72;;;;;;;4.98;46.47;100602.84;5088843;28;20187;-37
2023/04/08 04:42:30;;;;;;;8.38;3.00;;;;;;;4.97;46.81;100607.13;5075440;28;20040;-39
2023/04/08 04:44:57;;;;;;;7.05;3.08;;;;;;;4.97;46.54;100612.28;5076713;28;20135;-39
2023/04/08 04:47:24;;;;;;;10.60;2.97;;;;;;;5.02;47.01;100612.34;5071403;28;20067;-38
2023/04/08 04:49:50;;;;;;;11.85;4.10;;;;;;;5.07;46.66;100608.91;5088419;28;20131;-39
2023/04/08 04:52:16;;;;;;;9.75;4.05;;;;;;;5.15;46.57;100610.63;5086084;28;20534;-39
2023/04/08 04:54:42;;;;;;;9.23;3.65;;;;;;;5.16;46.42;100602.06;5087131;28;20039;-38
2023/04/08 04:57:07;;;;;;;14.48;3.78;;;;;;;5.18;46.56;100615.81;5090377;28;20499;-38
2023/04/08 04:59:33;;;;;;;13.30;3.90;;;;;;;5.21;46.70;100613.22;5077731;28;20032;-45
2023/04/08 05:01:59;;;;;;;15.32;3.60;;;;;;;5.27;46.71;100611.53;5084185;28;20100;-38
2023/04/08 05:04:25;;;;;;;12.65;4.10;;;;;;;5.36;46.21;100608.97;5088763;28;20036;-37
2023/04/08 05:06:51;;;;;;;11.25;4.70;;;;;;;5.47;46.25;100609.84;5088843;28;20473;-40
2023/04/08 05:09:17;;;;;;;13.85;3.72;;;;;;;5.55;46.37;100613.28;5090223;28;20489;-37
2023/04/08 05:11:43;;;;;;;10.95;3.63;;;;;;;5.62;45.82;100614.16;5089388;28;20550;-38
2023/04/08 05:14:09;;;;;;;9.93;3.90;;;;;;;5.66;46.17;100613.28;5074172;28;20045;-38
2023/04/08 05:16:35;;;;;;;14.27;4.43;;;;;;;5.73;45.76;100616.72;5077016;28;20101;-38
2023/04/08 05:19:01;;;;;;;17.55;4.70;;;;;;;5.85;46.26;100625.34;5090827;28;20083;-39
2023/04/08 05:21:27;;;;;;;7.50;3.60;;;;;;;5.93;45.65;100633.09;5087398;28;20068;-39
2023/04/08 05:23:53;;;;;;;8.82;3.80;;;;;;;6.01;45.61;100623.66;5085624;28;20599;-37
2023/04/08 05:26:20;;;;;;;8.95;3.55;;;;;;;6.11;45.88;100638.25;5060762;28;20461;-39
2023/04/08 05:28:47;;;;;;;9.40;3.80;;;;;;;6.08;45.34;100603.81;5067898;28;20048;-38
2023/04/08 05:31:19;;;;;;;11.02;4.45;;;;;;;6.25;45.33;100622.75;5068057;28;20668;-38
2023/04/08 05:33:45;;;;;;;10.07;3.90;;;;;;;6.36;45.23;100616.69;5071902;28;20051;-39
2023/04/08 05:36:12;;;;;;;9.50;4.28;;;;;;;6.57;44.61;100638.16;5092492;28;20135;-38
2023/04/08 05:38:39;;;;;;;22.95;3.90;;;;;;;6.67;44.93;100637.28;5084620;28;20040;-39
2023/04/08 05:41:05;;;;;;;14.95;4.55;;;;;;;6.67;44.66;100611.44;5076814;28;20041;-38
2023/04/08 05:43:34;;;;;;;21.05;4.22;;;;;;;6.98;44.67;100640.59;5069085;28;20527;-39
2023/04/08 05:46:05;;;;;;;;;;;;;;;7.14;44.16;100639.66;5085238;28;20110;-39
2023/04/08 05:48:30;;;;;;;8.95;4.32;;;;;;;7.23;43.97;100639.59;5088389;27;19962;-38
2023/04/08 05:50:56;;;;;;;14.52;4.60;;;;;;;7.40;43.38;100637.78;5088488;28;20071;-39
2023/04/08 05:53:23;;;;;;;10.30;4.53;;;;;;;7.55;43.35;100640.28;5082890;28;20057;-37
2023/04/08 05:55:49;;;;;;;11.77;4.40;;;;;;;7.74;43.14;100642.75;5087377;28;20044;-39
2023/04/08 05:58:15;;;;;;;13.73;4.47;;;;;;;7.91;42.93;100641.72;5071689;28;20047;-38
2023/04/08 06:00:41;;;;;;;11.82;4.40;;;;;;;8.01;42.46;100593.28;5068870;28;20048;-39
2023/04/08 06:03:07;;;;;;;11.48;4.40;;;;;;;8.81;42.01;100640.84;5071014;28;20074;-38
2023/04/08 06:05:33;;;;;;;16.45;4.75;;;;;;;9.47;40.31;100630.47;5083810;28;20480;-38
2023/04/08 06:07:59;;;;;;;11.52;4.82;;;;;;;10.19;39.86;100636.25;5081879;28;20082;-39
2023/04/08 06:10:25;;;;;;;13.45;4.70;;;;;;;10.90;38.62;100634.00;5085723;28;20473;-38
2023/04/08 06:12:51;;;;;;;11.40;4.68;;;;;;;11.72;36.99;100640.00;5080055;28;20106;-38
2023/04/08 06:15:17;;;;;;;12.85;4.53;;;;;;;12.57;35.85;100630.88;5086666;28;20406;-39
2023/04/08 06:17:43;;;;;;;13.02;4.97;;;;;;;13.40;34.68;100627.59;5087590;28;20259;-39
2023/04/08 06:20:09;;;;;;;13.85;4.93;;;;;;;14.32;33.78;100634.16;5068700;28;20511;-39
2023/04/08 06:22:35;;;;;;;13.18;4.88;;;;;;;15.11;32.36;100635.72;5083470;28;20072;-38
2023/04/08 06:25:01;;;;;;;18.98;6.18;;;;;;;15.94;31.17;100640.28;5083405;28;20066;-38
2023/04/08 06:27:28;;;;;;;12.73;6.03;;;;;;;16.76;30.28;100626.25;5085748;28;20074;-39
2023/04/08 06:29:54;;;;;;;12.02;5.75;;;;;;;17.52;29.24;100630.63;5083791;28;20067;-39
2023/04/08 06:32:21;;;;;;;12.10;5.50;;;;;;;18.01;28.14;100634.34;5081196;28;20048;-38
2023/04/08 06:34:47;;;;;;;15.65;5.40;;;;;;;18.23;27.49;100633.28;5083964;28;20044;-38
2023/04/08 06:37:13;;;;;;;12.95;5.10;;;;;;;18.65;27.10;100625.84;5087877;28;20127;-38
2023/04/08 06:39:39;;;;;;;14.40;5.68;;;;;;;19.35;26.11;100630.78;5083643;28;20182;-39
2023/04/08 06:42:05;;;;;;;18.80;5.30;;;;;;;20.19;25.21;100633.94;5069957;28;20056;-38
2023/04/08 06:44:51;;;;;;;18.88;5.40;;;;;;;21.09;24.16;100630.13;5080552;28;20438;-38
2023/04/08 06:47:17;;;;;;;19.95;5.85;;;;;;;21.79;23.22;100622.16;5064048;28;20040;-39
2023/04/08 06:49:43;;;;;;;19.17;5.47;;;;;;;22.46;22.61;100625.59;5085889;28;20032;-40
2023/04/08 06:52:09;;;;;;;25.83;7.95;;;;;;;23.23;21.78;100642.25;5086421;28;20496;-39
2023/04/08 06:54:35;;;;;;;13.75;5.80;;;;;;;23.87;20.95;100634.06;5066266;28;20044;-40
2023/04/08 06:57:01;;;;;;;17.00;6.28;;;;;;;24.48;20.51;100630.31;5067895;28;20493;-39
2023/04/08 06:59:27;;;;;;;15.07;5.78;;;;;;;25.05;19.93;100629.41;5081550;28;20039;-39
2023/04/08 07:01:53;;;;;;;26.38;6.28;;;;;;;25.50;19.64;100633.69;5088246;28;20039;-39
2023/04/08 07:04:19;;;;;;;17.30;6.72;;;;;;;25.92;19.15;100628.50;5070499;28;20408;-39
2023/04/08 07:06:45;;;;;;;16.70;5.53;;;;;;;26.42;18.28;100632.28;5076290;28;20036;-40
2023/04/08 07:09:11;;;;;;;24.23;7.85;;;;;;;26.89;17.76;100628.22;5062337;28;20111;-38
2023/04/08 07:11:37;;;;;;;14.82;5.28;;;;;;;27.14;17.75;100626.88;5067272;28;20094;-38
2023/04/08 07:14:03;;;;;;;20.35;6.43;;;;;;;27.45;17.19;100625.84;5093722;28;20571;-40
2023/04/08 07:16:29;;;;;;;13.93;5.95;;;;;;;27.74;16.89;100628.59;5084896;28;20043;-40
2023/04/08 07:18:55;;;;;;;19.55;6.82;;;;;;;28.29;16.42;100618.19;5071525;28;20545;-38
2023/04/08 07:21:21;;;;;;;10.80;5.43;;;;;;;28.74;15.96;100621.03;5054150;28;20033;-38
2023/04/08 07:23:47;;;;;;;16.67;5.72;;;;;;;28.86;15.55;100614.53;5080465;28;20048;-39
2023/04/08 07:26:13;;;;;;;17.15;5.70;;;;;;;29.12;15.54;100617.34;5084267;28;20505;-39
2023/04/08 07:28:39;;;;;;;10.93;5.22;;;;;;;29.62;15.19;100604.41;5083872;28;20071;-41
2023/04/08 07:31:16;;;;;;;12.52;5.30;;;;;;;30.47;14.27;100625.25;5085371;28;20039;-38
2023/04/08 07:33:43;;;;;;;16.00;6.30;;;;;;;30.76;14.40;100624.97;5053983;28;20181;-38
2023/04/08 07:36:10;;;;;;;16.17;6.28;;;;;;;31.01;14.15;100619.53;5086148;28;20039;-38
2023/04/08 07:38:37;;;;;;;20.95;6.22;;;;;;;31.16;13.96;100622.47;5066307;28;20040;-38
2023/04/08 07:41:03;;;;;;;15.38;5.82;;;;;;;31.25;13.72;100618.81;5065039;28;20049;-39
2023/04/08 07:43:30;;;;;;;10.25;5.13;;;;;;;30.84;13.73;100619.59;5064410;28;20055;-40
2023/04/08 07:46:02;;;;;;;12.23;5.15;;;;;;;30.27;14.25;100611.19;5065896;28;20415;-39
2023/04/08 07:48:29;;;;;;;11.77;6.22;;;;;;;30.36;14.20;100614.78;5082827;28;20442;-39
2023/04/08 07:50:55;;;;;;;10.20;5.15;;;;;;;30.82;13.83;100613.56;5067660;28;20051;-39
2023/04/08 07:53:22;;;;;;;7.28;4.60;;;;;;;31.27;13.43;100605.22;5066021;28;20036;-39
2023/04/08 07:55:49;;;;;;;18.42;5.97;;;;;;;31.41;13.44;100616.16;5067851;28;20052;-38
2023/04/08 07:58:15;;;;;;;14.80;5.50;;;;;;;31.40;13.61;100619.03;5067579;28;20492;-37
2023/04/08 08:00:41;;;;;;;11.45;4.28;;;;;;;31.36;13.36;100618.50;5068395;28;20048;-38
2023/04/08 08:03:07;;;;;;;9.57;4.82;;;;;;;30.88;13.24;100608.38;5071591;28;20126;-38
2023/04/08 08:05:33;;;;;;;14.25;5.38;;;;;;;30.29;13.68;100610.03;5071115;28;20516;-40
2023/04/08 08:07:58;;;;;;;14.68;5.43;;;;;;;29.83;13.84;100602.25;5069428;28;20040;-38
2023/04/08 08:10:25;;;;;;;13.70;7.30;;;;;;;29.74;13.70;100574.50;5070060;28;20044;-39
2023/04/08 08:12:51;;;;;;;7.65;4.20;;;;;;;30.02;13.33;100601.25;5071295;28;20036;-38
2023/04/08 08:15:17;;;;;;;9.68;4.10;;;;;;;29.37;13.61;100611.31;5086711;28;20045;-38
2023/04/08 08:17:43;;;;;;;10.40;4.55;;;;;;;28.95;14.08;100610.94;5086960;28;20040;-37
2023/04/08 08:20:09;;;;;;;7.22;4.18;;;;;;;29.14;13.92;100600.16;5087418;28;20534;-38
2023/04/08 08:22:35;;;;;;;7.43;4.25;;;;;;;27.39;14.56;100587.16;5076816;28;20627;-38
2023/04/08 08:25:00;;;;;;;9.38;4.38;;;;;;;27.26;14.77;100599.94;5072881;28;20056;-39
2023/04/08 08:27:26;;;;;;;10.23;4.00;;;;;;;28.40;14.54;100602.81;5071326;28;20491;-38
2023/04/08 08:29:53;;;;;;;9.35;3.50;;;;;;;28.90;13.98;100581.09;5070912;28;20097;-40
2023/04/08 08:32:18;;;;;;;6.20;3.63;;;;;;;29.75;13.79;100607.53;5071173;28;20756;-38
2023/04/08 08:34:44;;;;;;;9.50;4.05;;;;;;;29.94;13.38;100571.72;5070552;28;20060;-39
2023/04/08 08:37:10;;;;;;;16.83;7.38;;;;;;;30.20;13.01;100605.59;5070826;28;20044;-39
2023/04/08 08:39:36;;;;;;;17.33;9.95;;;;;;;30.62;13.26;100602.19;5070865;28;20043;-39
2023/04/08 08:42:02;;;;;;;5.55;4.13;;;;;;;30.67;12.80;100594.53;5052407;28;20036;-38
2023/04/08 08:44:29;;;;;;;7.80;4.15;;;;;;;30.92;12.54;100598.19;5069210;28;20474;-39
2023/04/08 08:46:55;;;;;;;10.85;4.40;;;;;;;30.70;12.41;100572.72;5070790;28;20068;-39
2023/04/08 08:49:22;;;;;;;8.43;4.20;;;;;;;30.48;12.81;100587.53;5068655;28;20516;-38
2023/04/08 08:51:50;;;;;;;12.57;4.75;;;;;;;31.15;12.57;100577.78;5083698;28;20152;-39
2023/04/08 08:54:15;;;;;;;10.75;4.78;;;;;;;31.63;12.70;100587.84;5089657;28;20062;-38
2023/04/08 08:56:44;;;;;;;13.65;5.47;;;;;;;31.89;12.07;100579.63;5072934;28;20050;-38
2023/04/08 08:59:10;;;;;;;8.80;5.13;;;;;;;32.32;12.04;100591.91;5087721;28;20044;-38
2023/04/08 09:01:39;;;;;;;11.40;5.32;;;;;;;32.74;12.00;100588.97;5070279;28;20117;-38
2023/04/08 09:04:17;;;;;;;5.75;3.72;;;;;;;32.94;11.36;100571.38;5069274;28;20083;-39
2023/04/08 09:06:44;;;;;;;10.15;3.05;;;;;;;33.46;11.06;100584.25;5069180;28;20058;-38
2023/04/08 09:09:10;;;;;;;9.07;3.13;;;;;;;33.70;10.91;100569.81;5069181;28;20070;-38
2023/04/08 09:11:41;;;;;;;5.03;3.30;;;;;;;34.14;10.80;100586.94;5067455;28;20067;-38
2023/04/08 09:14:23;;;;;;;6.75;3.00;;;;;;;34.44;10.58;100583.28;5068990;28;20048;-38
2023/04/08 09:16:50;;;;;;;5.22;3.60;;;;;;;34.44;10.29;100587.84;5069407;28;20128;-37
2023/04/08 09:19:16;;;;;;;6.65;3.50;;;;;;;33.98;10.31;100590.63;5071794;28;20044;-38
2023/04/08 09:21:42;;;;;;;9.95;4.15;;;;;;;33.70;10.70;100575.19;5069851;28;20507;-39
2023/04/08 09:24:09;;;;;;;7.03;3.22;;;;;;;33.10;10.75;100568.59;5085291;28;20117;-39
2023/04/08 09:26:36;;;;;;;8.43;3.57;;;;;;;32.51;11.24;100585.28;5105146;28;20091;-40
2023/04/08 09:29:08;;;;;;;7.05;3.67;;;;;;;32.97;11.03;100579.13;5090065;28;20036;-39
2023/04/08 09:31:39;;;;;;;6.40;4.22;;;;;;;33.50;11.10;100577.47;5071074;28;20071;-39
2023/04/08 09:34:18;;;;;;;7.38;4.07;;;;;;;33.00;11.12;100583.31;5051448;28;20134;-39
2023/04/08 09:36:44;;;;;;;10.27;5.10;;;;;;;33.30;11.19;100570.88;5085025;28;20029;-40
2023/04/08 09:39:10;;;;;;;9.75;4.47;;;;;;;33.82;11.06;100573.72;5073452;28;20415;-38
2023/04/08 09:41:38;;;;;;;9.07;4.20;;;;;;;34.29;10.62;100566.25;5106958;27;20046;-44
2023/04/08 09:44:06;;;;;;;7.97;3.70;;;;;;;34.49;10.83;100565.72;5094833;28;20057;-39
2023/04/08 09:46:55;;;;;;;7.97;4.32;;;;;;;34.63;10.68;100545.94;5060002;28;20369;-39
2023/04/08 09:49:37;;;;;;;8.15;4.40;;;;;;;35.13;10.31;100572.19;5094592;28;20422;-40
2023/04/08 09:52:24;;;;;;;9.13;3.70;;;;;;;34.76;9.93;100567.75;5078071;28;20663;-48
2023/04/08 09:55:03;;;;;;;5.30;3.63;;;;;;;34.32;10.33;100555.09;5077710;28;20039;-39
2023/04/08 09:57:48;;;;;;;8.63;3.63;;;;;;;35.13;9.85;100566.78;5054788;28;20043;-39
2023/04/08 10:00:16;;;;;;;10.15;3.70;;;;;;;35.59;9.88;100565.44;5076435;28;20495;-40
2023/04/08 10:03:00;;;;;;;;;;;;;;;35.38;9.69;100572.72;5048465;28;20032;-39
2023/04/08 10:05:26;;;;;;;8.75;4.00;;;;;;;32.81;11.19;100560.34;5054571;28;19916;-40
2023/04/08 10:07:55;;;;;;;9.40;4.63;;;;;;;31.62;11.51;100542.28;5084656;28;20042;-41
2023/04/08 10:10:21;;;;;;;13.57;4.95;;;;;;;31.91;11.62;100548.88;5086081;28;20475;-39
2023/04/08 10:12:48;;;;;;;10.55;4.60;;;;;;;32.89;11.09;100567.53;5066008;28;20061;-39
2023/04/08 10:15:26;;;;;;;5.60;4.22;;;;;;;33.38;10.53;100557.34;5069116;28;20098;-38
2023/04/08 10:18:13;;;;;;;8.30;4.95;;;;;;;34.18;10.49;100560.44;5082203;28;20056;-40
2023/04/08 10:20:39;;;;;;;8.27;4.70;;;;;;;35.06;10.14;100553.19;5061512;28;20052;-39
2023/04/08 10:23:13;;;;;;;15.93;4.90;;;;;;;35.45;10.36;100551.97;5073942;28;20487;-40
2023/04/08 10:25:46;;;;;;;9.00;5.25;;;;;;;35.78;9.94;100552.31;5071074;28;20064;-39
2023/04/08 10:28:12;;;;;;;9.63;5.43;;;;;;;35.98;10.23;100551.44;5082175;28;20055;-38
2023/04/08 10:30:39;;;;;;;11.00;5.10;;;;;;;35.92;9.75;100557.66;5076705;28;20032;-40
2023/04/08 10:33:14;;;;;;;10.95;5.47;;;;;;;35.93;9.96;100558.47;5091809;28;20067;-38
2023/04/08 10:35:45;;;;;;;10.95;5.55;;;;;;;35.54;10.06;100538.13;5087983;28;20036;-39
2023/04/08 10:38:15;;;;;;;13.30;4.88;;;;;;;35.37;9.92;100523.19;5081458;28;20050;-39
2023/04/08 10:40:41;;;;;;;9.02;5.25;;;;;;;34.98;9.90;100542.47;5072890;28;20044;-39
2023/04/08 10:43:12;;;;;;;9.67;5.33;;;;;;;34.32;10.54;100538.88;5075291;28;20052;-38
2023/04/08 10:45:39;;;;;;;8.55;5.70;;;;;;;34.47;10.58;100541.59;5080726;28;20040;-38
2023/04/08 10:48:12;;;;;;;11.67;5.37;;;;;;;33.71;10.80;100531.81;5077765;28;20047;-38
2023/04/08 10:50:38;;;;;;;9.30;5.63;;;;;;;33.14;11.27;100525.94;5071621;28;20396;-38
2023/04/08 10:53:04;;;;;;;11.50;5.60;;;;;;;33.77;10.88;100519.47;5069677;28;20040;-38
2023/04/08 10:55:31;;;;;;;8.57;5.32;;;;;;;33.70;11.05;100518.53;5076986;28;20040;-38
2023/04/08 10:58:07;;;;;;;11.70;5.28;;;;;;;34.06;10.80;100522.25;5071159;28;20055;-38
2023/04/08 11:00:35;;;;;;;10.23;5.13;;;;;;;33.63;10.86;100508.44;5074291;28;20036;-39
2023/04/08 11:03:10;;;;;;;11.65;5.13;;;;;;;33.43;10.98;100506.41;5069857;28;20036;-38
2023/04/08 11:05:37;;;;;;;8.15;5.30;;;;;;;32.52;11.52;100508.88;5066126;28;20032;-38
2023/04/08 11:08:04;;;;;;;8.57;5.65;;;;;;;32.47;11.50;100508.56;5093649;28;20182;-39
2023/04/08 11:10:30;;;;;;;9.93;5.68;;;;;;;33.18;11.16;100501.19;5068481;28;20044;-38
2023/04/08 11:12:57;;;;;;;12.35;4.95;;;;;;;33.86;10.97;100497.66;5090346;28;20047;-38
2023/04/08 11:15:28;;;;;;;12.75;6.57;;;;;;;34.47;10.39;100511.88;5071204;28;20036;-39
2023/04/08 11:17:55;;;;;;;8.25;5.25;;;;;;;34.83;10.18;100503.84;5061854;28;20040;-38
2023/04/08 11:20:21;;;;;;;9.93;6.03;;;;;;;35.36;9.94;100499.03;5071851;28;20050;-39
2023/04/08 11:22:47;;;;;;;13.18;5.35;;;;;;;35.64;9.85;100497.22;5078262;28;20040;-39
2023/04/08 11:25:13;;;;;;;14.07;5.53;;;;;;;35.67;9.82;100486.88;5072547;28;20083;-40
2023/04/08 11:27:39;;;;;;;9.00;5.47;;;;;;;35.77;10.13;100485.69;5078563;28;20040;-39
2023/04/08 11:30:10;;;;;;;11.63;5.80;;;;;;;35.73;10.12;100508.75;5085153;28;20093;-39